sensor_id;sensor_type;location;lat;lon;timestamp;pressure;altitude;pressure_sealevel;temperature;humidity
22582;BME280;47125;48.542;9.052;2022-11-06T00:03:43;96399.22;;;6.92;81.60
22582;BME280;47125;48.542;9.052;2022-11-06T00:13:46;96408.19;;;6.78;81.36
22582;BME280;47125;48.542;9.052;2022-11-06T00:23:50;96406.94;;;6.54;82.40
22582;BME280;47125;48.542;9.052;2022-11-06T00:33:54;96389.78;;;6.50;80.66
22582;BME280;47125;48.542;9.052;2022-11-06T00:43:58;96376.13;;;6.53;80.43
22582;BME280;47125;48.542;9.052;2022-11-06T00:54:01;96387.34;;;6.48;80.21
22582;BME280;47125;48.542;9.052;2022-11-06T01:04:06;96390.16;;;6.40;79.62
22582;BME280;47125;48.542;9.052;2022-11-06T01:14:09;96390.16;;;6.40;80.03
22582;BME280;47125;48.542;9.052;2022-11-06T01:24:16;96369.75;;;6.21;79.29
22582;BME280;47125;48.542;9.052;2022-11-06T01:34:19;96392.56;;;6.22;79.46
22582;BME280;47125;48.542;9.052;2022-11-06T01:54:44;96391.13;;;6.06;79.39
22582;BME280;47125;48.542;9.052;2022-11-06T02:04:48;96405.53;;;5.56;80.77
22582;BME280;47125;48.542;9.052;2022-11-06T02:14:55;96396.84;;;5.00;82.21
22582;BME280;47125;48.542;9.052;2022-11-06T02:25:09;96383.47;;;4.60;84.83
22582;BME280;47125;48.542;9.052;2022-11-06T02:35:19;96363.63;;;4.70;84.51
22582;BME280;47125;48.542;9.052;2022-11-06T02:45:24;96348.75;;;4.97;81.91
22582;BME280;47125;48.542;9.052;2022-11-06T02:55:30;96329.84;;;5.00;80.42
22582;BME280;47125;48.542;9.052;2022-11-06T03:05:35;96318.19;;;4.39;84.60
22582;BME280;47125;48.542;9.052;2022-11-06T03:15:42;96318.19;;;4.11;85.99
22582;BME280;47125;48.542;9.052;2022-11-06T03:25:50;96305.72;;;4.05;87.33
22582;BME280;47125;48.542;9.052;2022-11-06T03:35:55;96302.25;;;4.54;85.56
22582;BME280;47125;48.542;9.052;2022-11-06T03:46:01;96296.91;;;4.75;83.01
22582;BME280;47125;48.542;9.052;2022-11-06T03:56:08;96290.19;;;4.72;81.03
22582;BME280;47125;48.542;9.052;2022-11-06T04:06:12;96265.56;;;4.72;79.94
22582;BME280;47125;48.542;9.052;2022-11-06T04:16:18;96242.34;;;4.67;80.02
22582;BME280;47125;48.542;9.052;2022-11-06T04:26:21;96233.59;;;4.67;79.78
22582;BME280;47125;48.542;9.052;2022-11-06T04:36:41;96213.59;;;4.58;78.84
22582;BME280;47125;48.542;9.052;2022-11-06T04:46:45;96216.97;;;4.45;80.78
22582;BME280;47125;48.542;9.052;2022-11-06T04:56:49;96188.69;;;4.45;79.06
22582;BME280;47125;48.542;9.052;2022-11-06T05:06:52;96225.22;;;4.29;78.05
22582;BME280;47125;48.542;9.052;2022-11-06T05:16:56;96225.97;;;4.23;77.78
22582;BME280;47125;48.542;9.052;2022-11-06T05:26:58;96235.91;;;4.21;78.21
22582;BME280;47125;48.542;9.052;2022-11-06T05:37:02;96228.34;;;3.90;80.01
22582;BME280;47125;48.542;9.052;2022-11-06T05:47:04;96221.34;;;3.40;82.37
22582;BME280;47125;48.542;9.052;2022-11-06T05:57:08;96232.94;;;3.81;80.62
22582;BME280;47125;48.542;9.052;2022-11-06T06:07:11;96234.94;;;3.58;82.10
22582;BME280;47125;48.542;9.052;2022-11-06T06:17:14;96250.72;;;3.94;81.21
22582;BME280;47125;48.542;9.052;2022-11-06T06:27:17;96222.25;;;3.89;81.63
22582;BME280;47125;48.542;9.052;2022-11-06T06:37:21;96205.72;;;3.60;82.65
22582;BME280;47125;48.542;9.052;2022-11-06T06:47:23;96199.44;;;4.10;80.85
22582;BME280;47125;48.542;9.052;2022-11-06T06:57:27;96191.72;;;4.08;81.77
22582;BME280;47125;48.542;9.052;2022-11-06T07:07:30;96179.78;;;3.91;82.63
22582;BME280;47125;48.542;9.052;2022-11-06T07:17:34;96172.91;;;3.69;84.73
22582;BME280;47125;48.542;9.052;2022-11-06T07:27:36;96134.97;;;4.04;84.19
22582;BME280;47125;48.542;9.052;2022-11-06T07:37:40;96124.66;;;3.81;84.87
22582;BME280;47125;48.542;9.052;2022-11-06T07:47:43;96099.81;;;4.38;83.30
22582;BME280;47125;48.542;9.052;2022-11-06T07:57:47;96076.44;;;4.41;84.79
22582;BME280;47125;48.542;9.052;2022-11-06T08:07:54;96057.81;;;4.76;84.60
22582;BME280;47125;48.542;9.052;2022-11-06T08:17:58;96052.75;;;4.81;84.75
22582;BME280;47125;48.542;9.052;2022-11-06T08:28:01;96056.59;;;4.65;86.39
22582;BME280;47125;48.542;9.052;2022-11-06T08:38:05;96058.94;;;5.21;86.79
22582;BME280;47125;48.542;9.052;2022-11-06T08:48:08;96057.72;;;5.56;85.06
22582;BME280;47125;48.542;9.052;2022-11-06T08:58:11;96065.66;;;6.02;nan
22582;BME280;47125;48.542;9.052;2022-11-06T09:08:14;96080.88;;;6.39;nan
22582;BME280;47125;48.542;9.052;2022-11-06T09:18:18;96068.13;;;6.03;nan
22582;BME280;47125;48.542;9.052;2022-11-06T09:28:21;96080.75;;;5.82;nan
22582;BME280;47125;48.542;9.052;2022-11-06T09:38:24;96086.38;;;6.31;nan
22582;BME280;47125;48.542;9.052;2022-11-06T09:48:27;96052.56;;;6.14;nan
22582;BME280;47125;48.542;9.052;2022-11-06T09:58:34;96028.22;;;6.43;nan
22582;BME280;47125;48.542;9.052;2022-11-06T10:08:37;96025.47;;;6.05;nan
22582;BME280;47125;48.542;9.052;2022-11-06T10:18:47;95990.97;;;6.25;nan
22582;BME280;47125;48.542;9.052;2022-11-06T10:29:02;95990.75;;;6.64;nan
22582;BME280;47125;48.542;9.052;2022-11-06T10:39:11;95972.22;;;6.89;nan
22582;BME280;47125;48.542;9.052;2022-11-06T10:49:29;95961.91;;;7.30;nan
22582;BME280;47125;48.542;9.052;2022-11-06T10:59:35;95919.03;;;7.88;nan
22582;BME280;47125;48.542;9.052;2022-11-06T11:09:38;95894.47;;;8.22;nan
22582;BME280;47125;48.542;9.052;2022-11-06T11:19:42;95856.84;;;8.90;nan
22582;BME280;47125;48.542;9.052;2022-11-06T11:29:44;95844.72;;;9.40;nan
22582;BME280;47125;48.542;9.052;2022-11-06T11:39:49;95816.38;;;10.42;nan
22582;BME280;47125;48.542;9.052;2022-11-06T11:49:52;95807.22;;;11.21;nan
22582;BME280;47125;48.542;9.052;2022-11-06T11:59:57;95777.50;;;12.26;nan
22582;BME280;47125;48.542;9.052;2022-11-06T12:10:01;95768.34;;;12.81;nan
22582;BME280;47125;48.542;9.052;2022-11-06T12:20:09;95760.31;;;13.59;nan
22582;BME280;47125;48.542;9.052;2022-11-06T12:30:14;95757.34;;;13.61;nan
22582;BME280;47125;48.542;9.052;2022-11-06T12:40:19;95728.78;;;12.93;nan
22582;BME280;47125;48.542;9.052;2022-11-06T12:50:27;95746.41;;;12.84;nan
22582;BME280;47125;48.542;9.052;2022-11-06T13:00:35;95725.91;;;13.04;nan
22582;BME280;47125;48.542;9.052;2022-11-06T13:10:45;95707.94;;;12.63;nan
22582;BME280;47125;48.542;9.052;2022-11-06T13:20:53;95700.34;;;11.91;nan
22582;BME280;47125;48.542;9.052;2022-11-06T13:30:58;95691.41;;;11.59;nan
22582;BME280;47125;48.542;9.052;2022-11-06T13:41:07;95675.41;;;11.64;nan
22582;BME280;47125;48.542;9.052;2022-11-06T13:51:15;95671.78;;;11.27;nan
22582;BME280;47125;48.542;9.052;2022-11-06T14:01:25;95684.72;;;11.35;nan
22582;BME280;47125;48.542;9.052;2022-11-06T14:11:31;95692.16;;;10.73;nan
22582;BME280;47125;48.542;9.052;2022-11-06T14:31:59;95702.88;;;10.94;nan
22582;BME280;47125;48.542;9.052;2022-11-06T14:42:02;95676.00;;;10.63;nan
22582;BME280;47125;48.542;9.052;2022-11-06T14:52:07;95673.56;;;10.78;nan
22582;BME280;47125;48.542;9.052;2022-11-06T15:02:13;95670.63;;;10.79;nan
22582;BME280;47125;48.542;9.052;2022-11-06T15:12:18;95648.69;;;10.77;nan
22582;BME280;47125;48.542;9.052;2022-11-06T15:22:42;95663.53;;;10.51;nan
22582;BME280;47125;48.542;9.052;2022-11-06T15:32:48;95648.97;;;10.59;nan
22582;BME280;47125;48.542;9.052;2022-11-06T15:42:55;95658.38;;;10.45;nan
22582;BME280;47125;48.542;9.052;2022-11-06T15:53:20;95666.97;;;10.30;nan
22582;BME280;47125;48.542;9.052;2022-11-06T16:03:25;95658.97;;;10.14;nan
22582;BME280;47125;48.542;9.052;2022-11-06T16:13:29;95652.69;;;10.08;nan
22582;BME280;47125;48.542;9.052;2022-11-06T16:23:35;95642.19;;;9.85;nan
22582;BME280;47125;48.542;9.052;2022-11-06T16:33:39;95640.72;;;10.11;nan
22582;BME280;47125;48.542;9.052;2022-11-06T16:43:43;95638.00;;;10.06;nan
22582;BME280;47125;48.542;9.052;2022-11-06T16:53:47;95640.19;;;10.09;nan
22582;BME280;47125;48.542;9.052;2022-11-06T17:03:54;95652.84;;;10.02;nan
22582;BME280;47125;48.542;9.052;2022-11-06T17:13:57;95655.56;;;9.73;nan
22582;BME280;47125;48.542;9.052;2022-11-06T17:24:01;95664.78;;;9.66;nan
22582;BME280;47125;48.542;9.052;2022-11-06T17:34:18;95654.47;;;10.03;nan
22582;BME280;47125;48.542;9.052;2022-11-06T17:44:22;95670.28;;;9.76;nan
22582;BME280;47125;48.542;9.052;2022-11-06T17:54:25;95681.75;;;9.76;nan
22582;BME280;47125;48.542;9.052;2022-11-06T18:04:30;95705.00;;;9.64;nan
22582;BME280;47125;48.542;9.052;2022-11-06T18:14:34;95711.47;;;9.68;nan
22582;BME280;47125;48.542;9.052;2022-11-06T18:24:39;95723.81;;;9.58;nan
22582;BME280;47125;48.542;9.052;2022-11-06T18:34:42;95718.22;;;9.59;nan
22582;BME280;47125;48.542;9.052;2022-11-06T18:44:46;95719.38;;;9.63;nan
22582;BME280;47125;48.542;9.052;2022-11-06T18:54:48;95718.78;;;9.89;nan
22582;BME280;47125;48.542;9.052;2022-11-06T19:04:52;95729.31;;;9.96;nan
22582;BME280;47125;48.542;9.052;2022-11-06T19:14:55;95734.19;;;9.99;nan
22582;BME280;47125;48.542;9.052;2022-11-06T19:24:59;95759.19;;;9.81;nan
22582;BME280;47125;48.542;9.052;2022-11-06T19:35:01;95768.09;;;9.87;nan
22582;BME280;47125;48.542;9.052;2022-11-06T19:45:06;95795.09;;;9.90;nan
22582;BME280;47125;48.542;9.052;2022-11-06T19:55:09;95803.63;;;10.04;nan
22582;BME280;47125;48.542;9.052;2022-11-06T20:05:28;95812.84;;;9.96;nan
22582;BME280;47125;48.542;9.052;2022-11-06T20:15:31;95813.47;;;10.04;nan
22582;BME280;47125;48.542;9.052;2022-11-06T20:25:35;95840.97;;;10.16;nan
22582;BME280;47125;48.542;9.052;2022-11-06T20:35:37;95841.41;;;10.13;nan
22582;BME280;47125;48.542;9.052;2022-11-06T20:45:41;95849.91;;;10.21;nan
22582;BME280;47125;48.542;9.052;2022-11-06T20:55:44;95843.16;;;10.07;nan
22582;BME280;47125;48.542;9.052;2022-11-06T21:05:48;95853.84;;;10.07;nan
22582;BME280;47125;48.542;9.052;2022-11-06T21:15:55;95855.13;;;10.16;nan
22582;BME280;47125;48.542;9.052;2022-11-06T21:26:03;95861.34;;;10.22;nan
22582;BME280;47125;48.542;9.052;2022-11-06T21:36:06;95855.78;;;10.23;nan
22582;BME280;47125;48.542;9.052;2022-11-06T21:46:11;95866.06;;;10.31;nan
22582;BME280;47125;48.542;9.052;2022-11-06T21:56:13;95858.88;;;10.32;nan
22582;BME280;47125;48.542;9.052;2022-11-06T22:06:18;95868.13;;;10.41;nan
22582;BME280;47125;48.542;9.052;2022-11-06T22:16:22;95877.09;;;10.35;nan
22582;BME280;47125;48.542;9.052;2022-11-06T22:26:26;95884.34;;;10.51;nan
22582;BME280;47125;48.542;9.052;2022-11-06T22:36:29;95887.03;;;10.51;nan
22582;BME280;47125;48.542;9.052;2022-11-06T22:46:33;95901.34;;;10.62;nan
22582;BME280;47125;48.542;9.052;2022-11-06T22:56:36;95909.44;;;10.67;nan
22582;BME280;47125;48.542;9.052;2022-11-06T23:06:40;95918.91;;;10.58;nan
22582;BME280;47125;48.542;9.052;2022-11-06T23:16:42;95936.53;;;10.59;nan
22582;BME280;47125;48.542;9.052;2022-11-06T23:27:02;95950.56;;;10.66;nan
22582;BME280;47125;48.542;9.052;2022-11-06T23:37:05;95969.75;;;10.63;nan
22582;BME280;47125;48.542;9.052;2022-11-06T23:47:08;95968.66;;;10.75;nan
22582;BME280;47125;48.542;9.052;2022-11-06T23:57:11;95973.19;;;10.75;nan
